Scottish Airport Reports

Civil airfields updated at H+20 and H+50
RAF airfields updated at H+50 only

EGPD - Aberdeen
Distance from station: NNE 19mi, 31km
Updated: 18/02/2019 06:20
Mostly cloudy
Mostly cloudy
 Wind from S
Wind: S 20 mph , 31 km/h
Clouds: Mostly cloudy
Visibility: 6 miles , 10 km
Cloud details: Mostly cloudy 2200 ft
Mostly cloudy 2700 ft
2019/02/18 06:20 EGPD 180620Z AUTO 19017KT 9999 BKN022 BKN027
EGPN - Dundee
Distance from station: SW 41mi, 66km
Updated: 18/02/2019 06:20
Few Clouds
Few Clouds
 Wind from WSW
Wind: WSW 22 mph , 35 km/h
Temperature: 8°C
Wind Chill: 3°C
Dew Point: 5°C
Humidity: 82%
Barometer: 1001 hPa
Clouds: Few Clouds
Visibility: 6 miles , 10 km
Cloud details: Few Clouds 2500 ft
2019/02/18 06:20 EGPN 180620Z 24019KT 9999 FEW025 08/05 Q1001
 
EGQS - RAF Lossiemouth
Distance from station: NNW 63mi, 102km
Updated: 18/02/2019 05:50
Few Clouds
Few Clouds
 Wind from SSW
Wind: SSW 17 mph , 28 km/h
Temperature: 7°C
Wind Chill: 3°C
Dew Point: 3°C
Humidity: 76%
Barometer: 997 hPa
Clouds: Few Clouds
Visibility: 6 miles , 10 km
Cloud details: Few Clouds 3500 ft
2019/02/18 05:50 EGQS 180550Z 21015KT 9999 FEW035 07/03 Q0997 BLU
EGPE - Inverness
Distance from station: WNW 73mi, 117km
Updated: 18/02/2019 06:20
Few Clouds
Few Clouds
 Wind from SSW
Wind: SSW 13 mph , 20 km/h
Temperature: 6°C
Wind Chill: 2°C
Dew Point: 1°C
Humidity: 71%
Barometer: 996 hPa
Clouds: Few Clouds
Visibility: 6 miles , 10 km
Cloud details: Few Clouds 2500 ft
2019/02/18 06:20 EGPE 180620Z 20011KT 9999 FEW025 06/01 Q0996
 
EGPH - Edinburgh
Distance from station: SSW 77mi, 125km
Updated: 18/02/2019 06:20
Clear
Clear
 Wind from SW
Wind: SW 13 mph , 20 km/h
Temperature: 7°C
Wind Chill: 4°C
Dew Point: 4°C
Humidity: 81%
Barometer: 1002 hPa
Summary: Clear
Visibility: greater than 7 miles , 10 km
2019/02/18 06:20 EGPH 180620Z 22011KT CAVOK 07/04 Q1002
EGPC - Wick
Distance from station: NNW 107mi, 172km
Updated: 18/02/2019 06:20
Clear
Clear
 Wind from S
Wind: S 13 mph , 20 km/h
Temperature: 7°C
Wind Chill: 4°C
Dew Point: 4°C
Humidity: 81%
Barometer: 996 hPa
Clouds: Clear
Visibility: 6 miles , 10 km
2019/02/18 06:20 EGPC 180620Z AUTO 19011KT 9999 NCD 07/04 Q0996
 
EGPF - Glasgow
Distance from station: SW 107mi, 172km
Updated: 18/02/2019 06:20
Mostly cloudy
Mostly cloudy
 Wind from SSW
Wind: SSW 17 mph , 28 km/h
Temperature: 7°C
Wind Chill: 3°C
Dew Point: 4°C
Humidity: 81%
Barometer: 1002 hPa
Clouds: Mostly cloudy
Visibility: 6 miles , 10 km
Cloud details: Few Clouds 2200 ft
Partly cloudy 2800 ft
Mostly cloudy 3600 ft
2019/02/18 06:20 EGPF 180620Z AUTO 21015KT 9999 FEW022 SCT028 BKN036 07/04 Q1002
EGPK - Prestwick
Distance from station: SW 130mi, 209km
Updated: 18/02/2019 06:20
Partly cloudy
Partly cloudy
 Wind from SSW
Wind: SSW 16 mph , 26 km/h
Temperature: 7°C
Wind Chill: 3°C
Dew Point: 3°C
Humidity: 76%
Barometer: 1003 hPa
Clouds: Partly cloudy
Visibility: 6 miles , 10 km
Cloud details: Few Clouds 2500 ft
Partly cloudy 3500 ft
2019/02/18 06:20 EGPK 180620Z 20014KT 9999 FEW025 SCT035 07/03 Q1003
 
EGPA - Kirkwall, Orkney
Distance from station: N 140mi, 225km
Updated: 18/02/2019 06:20
Clear
Clear
 Wind from S
Wind: S 16 mph , 26 km/h
Temperature: 6°C
Wind Chill: 2°C
Dew Point: 4°C
Humidity: 87%
Barometer: 995 hPa
Summary: Clear
Visibility: greater than 7 miles , 10 km
2019/02/18 06:20 EGPA 180620Z 19014KT CAVOK 06/04 Q0995
EGPO - Stornoway, Outer Hebrides
Distance from station: WNW 169mi, 273km
Updated: 18/02/2019 06:20
Rain showers, Mostly cloudy
Rain showers, Mostly cloudy
 Wind from S
Wind: S 36 mph , 57 km/h
Temperature: 7°C
Wind Chill: 1°C
Dew Point: 6°C
Humidity: 93%
Barometer: 991 hPa
Summary: Rain Showers
Clouds: Mostly cloudy
Visibility: 4 miles , 7 km
Cloud details: Few Clouds 800 ft
Mostly cloudy 1400 ft
Mostly cloudy 2200 ft
2019/02/18 06:20 EGPO 180620Z 19031KT 7000 SHRA FEW008 BKN014CB BKN022 07/06 Q0991
 
EGPI - Islay, Inner Hebrides
Distance from station: WSW 172mi, 276km
Updated: 18/02/2019 05:50
Few Clouds
Few Clouds
 Wind from S
Wind: S 23 mph , 37 km/h
Temperature: 7°C
Wind Chill: 2°C
Dew Point: 3°C
Humidity: 76%
Barometer: 1000 hPa
Clouds: Few Clouds
Visibility: 6 miles , 10 km
Cloud details: Few Clouds 4200 ft
2019/02/18 05:50 EGPI 180550Z AUTO 19020KT 9999 FEW042/// 07/03 Q1000
EGPU - Tiree, Inner Hebrides
Distance from station: W 172mi, 276km
Updated: 18/02/2019 05:50
Mostly cloudy
Mostly cloudy
 Wind from S
Wind: S 31 mph , 50 km/h, Gust: 43 mph , 69 km/h
Temperature: 8°C
Wind Chill: 2°C
Dew Point: 5°C
Humidity: 82%
Barometer: 995 hPa
Clouds: Mostly cloudy
Visibility: 5 miles , 8 km
Cloud details: Partly cloudy 2100 ft
Mostly cloudy 3100 ft
2019/02/18 05:50 EGPU 180550Z AUTO 19027G37KT 160V220 8000 SCT021/// BKN031/// 08/05 Q0995 RERA
 
EGPB - Sumburgh, Shetland
Distance from station: NNE 208mi, 332km
Updated: 18/02/2019 06:20
Partly cloudy
Partly cloudy
 Wind from SSW
Wind: SSW 23 mph , 37 km/h
Temperature: 8°C
Wind Chill: 3°C
Dew Point: 5°C
Humidity: 82%
Barometer: 996 hPa
Clouds: Partly cloudy
Visibility: 6 miles , 9 km
2019/02/18 06:20 EGPB 180620Z 21020KT 9000 NSC 08/05 Q0996
EGPM - Scatsa, Shetland
Distance from station: NNE 245mi, 392km
Updated: 18/02/2019 06:20
Few Clouds
Few Clouds
 Wind from S
Wind: S 25 mph , 41 km/h
Temperature: 7°C
Wind Chill: 2°C
Dew Point: 5°C
Humidity: 87%
Barometer: 994 hPa
Clouds: Few Clouds
Visibility: 6 miles , 10 km
Cloud details: Few Clouds 2000 ft
2019/02/18 06:20 EGPM 180620Z 19022KT 9999 FEW020 07/05 Q0994
-->